Patriot — WDC2859 — position and weather

sailwx.info

Track history (hours):
 
Tides and Currents Weather Stations Pressure Air Temp Water Temp Dewpoint Dewpoint Depression Visibility Wind Speed Wind Dir Waves Ship Positions

Patriot

Owner: AMNAV Maritime Corporation, Oakland, CA. More information available from US FCC via Universal Licensing System and Coast Guard Vessel Documentation Center.

Last reported at 2018-Feb-21 03:30 UTC. Time now 2018-Feb-21 03:32 UTC.
Position N 37°54' W 122°22'.

Length 31 m; draft 4.6 m.

Type: Tug. MMSI: 366998680.

Date/timePositionNaut miles runAvg speedWind from/ knotsBaromVisibWave heightAir tempDewpointWater temp
2018-Feb-21 03:30N 37°54' W 122°22'2 4.3
2018-Feb-21 03:00N 37°55' W 122°24'1 1.2
2018-Feb-21 02:30N 37°54' W 122°24'0 0.0
2018-Feb-21 02:00N 37°54' W 122°24'0 0.0
2018-Feb-21 01:30N 37°54' W 122°24'0 0.0
2018-Feb-21 01:00N 37°54' W 122°24'0 0.0
2018-Feb-21 00:30N 37°54' W 122°24'5 9.5
2018-Feb-21 00:00N 37°59' W 122°25'610.6
2018-Feb-20 23:29N 38°02' W 122°20'3 6.9
2018-Feb-20 23:00N 38°03' W 122°16'0 0.0
2018-Feb-20 22:29N 38°03' W 122°16'1 1.0
2018-Feb-20 22:00N 38°04' W 122°16'2 4.9
2018-Feb-20 21:30N 38°04' W 122°13'4 0.6
2018-Feb-20 14:30N 38°02' W 122°08'4 7.6
2018-Feb-20 13:59N 38°03' W 122°13'0 0.2
2018-Feb-20 13:30N 38°04' W 122°13'1 2.9
2018-Feb-20 13:00N 38°03' W 122°11'3 0.1
2018-Feb-19 08:08N 38°02' W 122°08'0 2.4
2018-Feb-19 08:00N 38°02' W 122°08'  
2018-Feb-17 03:46N 38°02' W 122°08'2 8.2
2018-Feb-17 03:30N 38°03' W 122°11'4 8.4
2018-Feb-17 03:00N 38°03' W 122°16'5 9.3
2018-Feb-17 02:30N 38°02' W 122°22'510.0
2018-Feb-17 02:00N 37°58' W 122°26'4 8.5
2018-Feb-17 01:30N 37°54' W 122°23'1 1.9
2018-Feb-17 01:00N 37°54' W 122°22'0 0.3
2018-Feb-17 00:30N 37°55' W 122°22'1 1.6
2018-Feb-17 00:00N 37°54' W 122°23'4 7.1
2018-Feb-16 23:30N 37°51' W 122°23'3 6.6
2018-Feb-16 23:00N 37°49' W 122°19'0 0.0
2018-Feb-16 22:31N 37°49' W 122°19'0 0.0
2018-Feb-16 22:00N 37°49' W 122°19'0 0.0
2018-Feb-16 21:30N 37°49' W 122°19'0 0.0
2018-Feb-16 21:00N 37°49' W 122°19'0 0.0
2018-Feb-16 20:31N 37°49' W 122°19'0 0.0
2018-Feb-16 20:01N 37°49' W 122°19'0 0.0
2018-Feb-16 19:30N 37°49' W 122°19'0 0.0
2018-Feb-16 19:00N 37°49' W 122°19'0 0.0
2018-Feb-16 18:30N 37°49' W 122°19'0 0.0
2018-Feb-16 18:00N 37°49' W 122°19'0 0.0
2018-Feb-16 17:30N 37°49' W 122°19'0 0.0
2018-Feb-16 17:01N 37°49' W 122°19'0 0.0
2018-Feb-16 16:30N 37°49' W 122°19'0 0.0
2018-Feb-16 16:00N 37°49' W 122°19'0 0.0
2018-Feb-16 15:29N 37°49' W 122°19'0 0.0
2018-Feb-16 15:01N 37°49' W 122°19'0 0.0
2018-Feb-16 14:30N 37°49' W 122°19'2 3.2
2018-Feb-16 14:00N 37°48' W 122°19'1 1.3
2018-Feb-16 13:30N 37°48' W 122°19'1 1.5
2018-Feb-16 13:01N 37°48' W 122°20'1 2.0
2018-Feb-16 12:30N 37°48' W 122°21'0 0.0
2018-Feb-16 12:00N 37°48' W 122°21'0 0.0
2018-Feb-16 11:30N 37°48' W 122°21'0 0.0
2018-Feb-16 11:01N 37°48' W 122°21'0 0.0
2018-Feb-16 10:30N 37°48' W 122°21'0 0.0
2018-Feb-16 10:00N 37°48' W 122°21'0 0.0
2018-Feb-16 09:30N 37°48' W 122°21'0 0.0
2018-Feb-16 09:00N 37°48' W 122°21'0 0.0
2018-Feb-16 08:30N 37°48' W 122°21'0 0.0
2018-Feb-16 08:00N 37°48' W 122°21'0 0.0
2018-Feb-16 07:30N 37°48' W 122°21'0 0.0
2018-Feb-16 07:00N 37°48' W 122°21'0 0.0
2018-Feb-16 06:30N 37°48' W 122°21'0 0.0
2018-Feb-16 06:00N 37°48' W 122°21'0 0.0
2018-Feb-16 05:30N 37°48' W 122°21'0 0.0
2018-Feb-16 05:00N 37°48' W 122°21'3 6.6
2018-Feb-16 04:30N 37°51' W 122°23'3 6.3
2018-Feb-16 04:00N 37°54' W 122°22'0 0.5
2018-Feb-16 03:30N 37°54' W 122°22'0 0.4
2018-Feb-16 03:00N 37°54' W 122°22'1 2.9
2018-Feb-16 02:30N 37°54' W 122°24'3 5.3
2018-Feb-16 02:00N 37°52' W 122°24'3 6.0
2018-Feb-16 01:30N 37°49' W 122°22'0 0.0
2018-Feb-16 01:00N 37°49' W 122°22'0 0.0
2018-Feb-16 00:30N 37°49' W 122°22'4 7.3
2018-Feb-15 23:59N 37°48' W 122°17'1 2.9
2018-Feb-15 23:30N 37°48' W 122°19'1 2.5
2018-Feb-15 23:00N 37°49' W 122°20'2 3.1
2018-Feb-15 22:30N 37°49' W 122°19'0 0.0
2018-Feb-15 22:00N 37°49' W 122°19'0 0.0
2018-Feb-15 21:30N 37°49' W 122°19'0 0.0
2018-Feb-15 21:00N 37°49' W 122°19'0 0.0
2018-Feb-15 20:30N 37°49' W 122°19'0 0.0
2018-Feb-15 20:01N 37°49' W 122°19'0 0.0
2018-Feb-15 19:30N 37°49' W 122°19'0 0.0
2018-Feb-15 19:01N 37°49' W 122°19'0 0.0
2018-Feb-15 18:30N 37°49' W 122°19'0 0.0
2018-Feb-15 18:00N 37°49' W 122°19'0 0.0
2018-Feb-15 17:30N 37°49' W 122°19'0 0.0
2018-Feb-15 17:00N 37°49' W 122°19'0 0.0
2018-Feb-15 16:30N 37°49' W 122°19'0 0.0
2018-Feb-15 16:00N 37°49' W 122°19'0 0.0
2018-Feb-15 15:31N 37°49' W 122°19'0 0.0
2018-Feb-15 15:00N 37°49' W 122°19'0 0.0
2018-Feb-15 14:30N 37°49' W 122°19'0 0.0
2018-Feb-15 14:00N 37°49' W 122°19'0 0.0
2018-Feb-15 13:30N 37°49' W 122°19'0 0.0
2018-Feb-15 13:00N 37°49' W 122°19'0 0.0
2018-Feb-15 12:30N 37°49' W 122°19'0 0.0
2018-Feb-15 12:00N 37°49' W 122°19'0 0.0
2018-Feb-15 11:29N 37°49' W 122°19'0 0.0
2018-Feb-15 11:00N 37°49' W 122°19'0 0.0
2018-Feb-15 10:31N 37°49' W 122°19'0 0.0
2018-Feb-15 10:00N 37°49' W 122°19'0 0.0
2018-Feb-15 09:30N 37°49' W 122°19'0 0.0
2018-Feb-15 09:00N 37°49' W 122°19'0 0.0
2018-Feb-15 08:30N 37°49' W 122°19'0 0.0
2018-Feb-15 08:00N 37°49' W 122°19'0 0.0
2018-Feb-15 07:31N 37°49' W 122°19'0 0.0
2018-Feb-15 07:00N 37°49' W 122°19'0 0.0
2018-Feb-15 06:30N 37°49' W 122°19'0 0.0
2018-Feb-15 06:00N 37°49' W 122°19'0 0.0
2018-Feb-15 05:30N 37°49' W 122°19'0 0.0
2018-Feb-15 05:01N 37°49' W 122°19'0 0.0
2018-Feb-15 04:30N 37°49' W 122°19'0 0.0
2018-Feb-15 04:00N 37°49' W 122°19'0 0.0
2018-Feb-15 03:29N 37°49' W 122°19'1 2.1
2018-Feb-15 03:00N 37°49' W 122°20'1 1.8
2018-Feb-15 02:30N 37°48' W 122°19'0 0.3
2018-Feb-15 02:00N 37°48' W 122°19'0 0.0
2018-Feb-15 01:29N 37°48' W 122°19'0 0.3
2018-Feb-15 01:00N 37°48' W 122°19'0 0.0
2018-Feb-15 00:30N 37°48' W 122°19'1 1.4
2018-Feb-15 00:00N 37°48' W 122°20'0 0.9
2018-Feb-14 23:30N 37°48' W 122°21'2 4.0
2018-Feb-14 23:00N 37°47' W 122°18'2 4.1
2018-Feb-14 22:30N 37°48' W 122°21'1 2.4
2018-Feb-14 22:00N 37°48' W 122°22'3 5.8
2018-Feb-14 21:30N 37°49' W 122°19'0 0.0
2018-Feb-14 21:00N 37°49' W 122°19'0 0.0
2018-Feb-14 20:30N 37°49' W 122°19'0 0.0
2018-Feb-14 20:00N 37°49' W 122°19'0 0.0
2018-Feb-14 19:30N 37°49' W 122°19'0 0.0
2018-Feb-14 19:00N 37°49' W 122°19'0 0.0
2018-Feb-14 18:30N 37°49' W 122°19'0 0.0
2018-Feb-14 18:00N 37°49' W 122°19'0 0.0
2018-Feb-14 17:30N 37°49' W 122°19'0 0.0
2018-Feb-14 17:00N 37°49' W 122°19'0 0.0
2018-Feb-14 16:30N 37°49' W 122°19'0 0.0
2018-Feb-14 16:00N 37°49' W 122°19'0 0.0
2018-Feb-14 15:30N 37°49' W 122°19'0 0.0
2018-Feb-14 15:00N 37°49' W 122°19'0 0.0
2018-Feb-14 14:30N 37°49' W 122°19'3 5.1
2018-Feb-14 14:00N 37°48' W 122°21'3 5.7
2018-Feb-14 13:30N 37°45' W 122°23'0 0.8
2018-Feb-14 13:00N 37°45' W 122°22'2 3.7
2018-Feb-14 12:30N 37°47' W 122°23'0 0.8
2018-Feb-14 12:01N 37°47' W 122°23'0 0.0
2018-Feb-14 11:30N 37°47' W 122°23'0 0.0
2018-Feb-14 11:00N 37°47' W 122°23'1 2.9
2018-Feb-14 10:30N 37°49' W 122°24'5 9.4
2018-Feb-14 10:00N 37°53' W 122°25'3 5.1
2018-Feb-14 09:30N 37°54' W 122°22'0 0.0
2018-Feb-14 09:00N 37°54' W 122°22'1 1.4
2018-Feb-14 08:30N 37°54' W 122°23'2 4.4
2018-Feb-14 08:00N 37°55' W 122°25'1 1.9
2018-Feb-14 07:30N 37°54' W 122°24'1 1.4
2018-Feb-14 07:00N 37°54' W 122°24'0 0.0
2018-Feb-14 06:29N 37°54' W 122°24'0 0.0
2018-Feb-14 06:00N 37°54' W 122°24'0 0.0
2018-Feb-14 05:30N 37°54' W 122°24'0 0.0
2018-Feb-14 05:00N 37°54' W 122°24'0 0.0
2018-Feb-14 04:30N 37°54' W 122°24'0 0.0
2018-Feb-14 04:00N 37°54' W 122°24'0 0.0
2018-Feb-14 03:30N 37°54' W 122°24'0 0.0
2018-Feb-14 03:00N 37°54' W 122°24'0 0.1
2018-Feb-14 02:30N 37°54' W 122°24'3 6.7
2018-Feb-14 02:00N 37°51' W 122°23'4 7.7
2018-Feb-14 01:30N 37°49' W 122°20'0 0.4
2018-Feb-14 01:00N 37°49' W 122°20'0 0.3
2018-Feb-14 00:30N 37°49' W 122°20'1 2.0
2018-Feb-14 00:00N 37°49' W 122°19'0 0.0
2018-Feb-13 23:30N 37°49' W 122°19'0 0.0
2018-Feb-13 23:00N 37°49' W 122°19'0 0.0
2018-Feb-13 22:30N 37°49' W 122°19'0 0.0
2018-Feb-13 22:00N 37°49' W 122°19'0 0.0
2018-Feb-13 21:30N 37°49' W 122°19'0 0.0
2018-Feb-13 21:00N 37°49' W 122°19'0 0.0
2018-Feb-13 20:30N 37°49' W 122°19'0 0.0
2018-Feb-13 20:00N 37°49' W 122°19'0 0.0
2018-Feb-13 19:30N 37°49' W 122°19'0 0.0
2018-Feb-13 19:00N 37°49' W 122°19'0 0.0
2018-Feb-13 18:29N 37°49' W 122°19'0 0.0
2018-Feb-13 18:00N 37°49' W 122°19'0 0.0
2018-Feb-13 17:30N 37°49' W 122°19'0 0.0
2018-Feb-13 17:00N 37°49' W 122°19'0 0.0
2018-Feb-13 16:30N 37°49' W 122°19'0 0.0
2018-Feb-13 16:00N 37°49' W 122°19'0 0.0
2018-Feb-13 15:30N 37°49' W 122°19'0 0.0
2018-Feb-13 15:00N 37°49' W 122°19'0 0.0
2018-Feb-13 14:30N 37°49' W 122°19'0 0.0
2018-Feb-13 14:00N 37°49' W 122°19'0 0.0
2018-Feb-13 13:30N 37°49' W 122°19'0 0.0
2018-Feb-13 13:00N 37°49' W 122°19'0 0.0
2018-Feb-13 12:28N 37°49' W 122°19'0 0.0
2018-Feb-13 12:00N 37°49' W 122°19'0 0.0
2018-Feb-13 11:30N 37°49' W 122°19'0 0.0
2018-Feb-13 11:00N 37°49' W 122°19'0 0.0
2018-Feb-13 10:30N 37°49' W 122°19'0 0.0
2018-Feb-13 10:00N 37°49' W 122°19'0 0.0
2018-Feb-13 09:30N 37°49' W 122°19'0 0.0
2018-Feb-13 09:00N 37°49' W 122°19'0 0.0
2018-Feb-13 08:30N 37°49' W 122°19'0 0.0
2018-Feb-13 08:00N 37°49' W 122°19'0 0.0
2018-Feb-13 07:30N 37°49' W 122°19'0 0.0
2018-Feb-13 07:00N 37°49' W 122°19'0 0.0
2018-Feb-13 06:30N 37°49' W 122°19'0 0.0
2018-Feb-13 06:00N 37°49' W 122°19'0 0.0
2018-Feb-13 05:30N 37°49' W 122°19'0 0.0
2018-Feb-13 05:00N 37°49' W 122°19'0 0.0
2018-Feb-13 04:30N 37°49' W 122°19'0 0.0
2018-Feb-13 04:00N 37°49' W 122°19'0 0.0
2018-Feb-13 03:30N 37°49' W 122°19'0 0.0
2018-Feb-13 03:00N 37°49' W 122°19'0 0.0
2018-Feb-13 02:30N 37°49' W 122°19'0 0.0
2018-Feb-13 02:00N 37°49' W 122°19'0 0.0
2018-Feb-13 01:30N 37°49' W 122°19'0 0.0
2018-Feb-13 01:00N 37°49' W 122°19'0 0.0
2018-Feb-13 00:30N 37°49' W 122°19'0 0.0
2018-Feb-13 00:00N 37°49' W 122°19'0 0.0
2018-Feb-12 23:30N 37°49' W 122°19'0 0.0
2018-Feb-12 23:00N 37°49' W 122°19'0 0.0
2018-Feb-12 22:30N 37°49' W 122°19'0 0.0
2018-Feb-12 22:00N 37°49' W 122°19'0 0.0
2018-Feb-12 21:30N 37°49' W 122°19'0 0.0
2018-Feb-12 20:59N 37°49' W 122°19'0 0.0
2018-Feb-12 20:30N 37°49' W 122°19'0 0.0
2018-Feb-12 20:00N 37°49' W 122°19'0 0.0
2018-Feb-12 19:30N 37°49' W 122°19'0 0.0
2018-Feb-12 19:00N 37°49' W 122°19'0 0.0
2018-Feb-12 18:30N 37°49' W 122°19'0 0.0
2018-Feb-12 17:59N 37°49' W 122°19'0 0.0
2018-Feb-12 17:30N 37°49' W 122°19'0 0.0
2018-Feb-12 17:00N 37°49' W 122°19'0 0.0
2018-Feb-12 16:30N 37°49' W 122°19'0 0.0
2018-Feb-12 16:00N 37°49' W 122°19'0 0.0
2018-Feb-12 15:30N 37°49' W 122°19'0 0.0
2018-Feb-12 15:00N 37°49' W 122°19'1 2.0
2018-Feb-12 14:31N 37°49' W 122°20'1 1.5
2018-Feb-12 14:01N 37°48' W 122°21'0 0.3
2018-Feb-12 13:30N 37°48' W 122°21'0 0.0
2018-Feb-12 13:00N 37°48' W 122°21'4 8.3
2018-Feb-12 12:30N 37°51' W 122°24'510.6
2018-Feb-12 12:00N 37°57' W 122°26'510.4
2018-Feb-12 11:29N 38°01' W 122°23'510.7
2018-Feb-12 11:00N 38°04' W 122°17'7 0.4
2018-Feb-11 17:58N 38°02' W 122°08'1 0.3
2018-Feb-11 14:47N 38°02' W 122°10'1 1.9
2018-Feb-11 14:10N 38°02' W 122°08'1 3.4
2018-Feb-11 14:00N 38°02' W 122°09'2 1.3
2018-Feb-11 12:32N 38°03' W 122°11'0 8.5
2018-Feb-11 12:30N 38°03' W 122°11'4 8.2
2018-Feb-11 12:00N 38°03' W 122°16'5 8.7
2018-Feb-11 11:29N 38°02' W 122°21'5 9.2
2018-Feb-11 10:59N 37°59' W 122°26'4 8.9
2018-Feb-11 10:30N 37°54' W 122°25'5 9.5
2018-Feb-11 10:00N 37°50' W 122°22'3 5.9
2018-Feb-11 09:30N 37°49' W 122°19'0 0.0
2018-Feb-11 09:00N 37°49' W 122°19'0 0.0
2018-Feb-11 08:30N 37°49' W 122°19'0 0.0
2018-Feb-11 08:00N 37°49' W 122°19'0 0.0
2018-Feb-11 07:30N 37°49' W 122°19'0 0.0
2018-Feb-11 07:00N 37°49' W 122°19'0 0.0
2018-Feb-11 06:30N 37°49' W 122°19'0 0.0
2018-Feb-11 06:00N 37°49' W 122°19'0 0.0
2018-Feb-11 05:30N 37°49' W 122°19'0 0.0
2018-Feb-11 05:00N 37°49' W 122°19'0 0.0
2018-Feb-11 04:30N 37°49' W 122°19'0 0.0
2018-Feb-11 04:00N 37°49' W 122°19'0 0.0
2018-Feb-11 03:30N 37°49' W 122°19'  
Track history (hours):
 
Tides and Currents Weather Stations Pressure Air Temp Water Temp Dewpoint Dewpoint Depression Visibility Wind Speed Wind Dir Waves Ship Positions

Patriot

Owner: AMNAV Maritime Corporation, Oakland, CA. More information available from US FCC via Universal Licensing System and Coast Guard Vessel Documentation Center.

Last reported at 2018-Feb-21 03:30 UTC. Time now 2018-Feb-21 03:32 UTC.
Position N 37°54' W 122°22'.

Length 31 m; draft 4.6 m.

Type: Tug. MMSI: 366998680.

Date/timePositionNaut miles runAvg speedWind from/ knotsBaromVisibWave heightAir tempDewpointWater temp
2018-Feb-21 03:30N 37°54' W 122°22'2 4.3
2018-Feb-21 03:00N 37°55' W 122°24'1 1.2
2018-Feb-21 02:30N 37°54' W 122°24'0 0.0
2018-Feb-21 02:00N 37°54' W 122°24'0 0.0
2018-Feb-21 01:30N 37°54' W 122°24'0 0.0
2018-Feb-21 01:00N 37°54' W 122°24'0 0.0
2018-Feb-21 00:30N 37°54' W 122°24'5 9.5
2018-Feb-21 00:00N 37°59' W 122°25'610.6
2018-Feb-20 23:29N 38°02' W 122°20'3 6.9
2018-Feb-20 23:00N 38°03' W 122°16'0 0.0
2018-Feb-20 22:29N 38°03' W 122°16'1 1.0
2018-Feb-20 22:00N 38°04' W 122°16'2 4.9
2018-Feb-20 21:30N 38°04' W 122°13'4 0.6
2018-Feb-20 14:30N 38°02' W 122°08'4 7.6
2018-Feb-20 13:59N 38°03' W 122°13'0 0.2
2018-Feb-20 13:30N 38°04' W 122°13'1 2.9
2018-Feb-20 13:00N 38°03' W 122°11'3 0.1
2018-Feb-19 08:08N 38°02' W 122°08'0 2.4
2018-Feb-19 08:00N 38°02' W 122°08'  
2018-Feb-17 03:46N 38°02' W 122°08'2 8.2
2018-Feb-17 03:30N 38°03' W 122°11'4 8.4
2018-Feb-17 03:00N 38°03' W 122°16'5 9.3
2018-Feb-17 02:30N 38°02' W 122°22'510.0
2018-Feb-17 02:00N 37°58' W 122°26'4 8.5
2018-Feb-17 01:30N 37°54' W 122°23'1 1.9
2018-Feb-17 01:00N 37°54' W 122°22'0 0.3
2018-Feb-17 00:30N 37°55' W 122°22'1 1.6
2018-Feb-17 00:00N 37°54' W 122°23'4 7.1
2018-Feb-16 23:30N 37°51' W 122°23'3 6.6
2018-Feb-16 23:00N 37°49' W 122°19'0 0.0
2018-Feb-16 22:31N 37°49' W 122°19'0 0.0
2018-Feb-16 22:00N 37°49' W 122°19'0 0.0
2018-Feb-16 21:30N 37°49' W 122°19'0 0.0
2018-Feb-16 21:00N 37°49' W 122°19'0 0.0
2018-Feb-16 20:31N 37°49' W 122°19'0 0.0
2018-Feb-16 20:01N 37°49' W 122°19'0 0.0
2018-Feb-16 19:30N 37°49' W 122°19'0 0.0
2018-Feb-16 19:00N 37°49' W 122°19'0 0.0
2018-Feb-16 18:30N 37°49' W 122°19'0 0.0
2018-Feb-16 18:00N 37°49' W 122°19'0 0.0
2018-Feb-16 17:30N 37°49' W 122°19'0 0.0
2018-Feb-16 17:01N 37°49' W 122°19'0 0.0
2018-Feb-16 16:30N 37°49' W 122°19'0 0.0
2018-Feb-16 16:00N 37°49' W 122°19'0 0.0
2018-Feb-16 15:29N 37°49' W 122°19'0 0.0
2018-Feb-16 15:01N 37°49' W 122°19'0 0.0
2018-Feb-16 14:30N 37°49' W 122°19'2 3.2
2018-Feb-16 14:00N 37°48' W 122°19'1 1.3
2018-Feb-16 13:30N 37°48' W 122°19'1 1.5
2018-Feb-16 13:01N 37°48' W 122°20'1 2.0
2018-Feb-16 12:30N 37°48' W 122°21'0 0.0
2018-Feb-16 12:00N 37°48' W 122°21'0 0.0
2018-Feb-16 11:30N 37°48' W 122°21'0 0.0
2018-Feb-16 11:01N 37°48' W 122°21'0 0.0
2018-Feb-16 10:30N 37°48' W 122°21'0 0.0
2018-Feb-16 10:00N 37°48' W 122°21'0 0.0
2018-Feb-16 09:30N 37°48' W 122°21'0 0.0
2018-Feb-16 09:00N 37°48' W 122°21'0 0.0
2018-Feb-16 08:30N 37°48' W 122°21'0 0.0
2018-Feb-16 08:00N 37°48' W 122°21'0 0.0
2018-Feb-16 07:30N 37°48' W 122°21'0 0.0
2018-Feb-16 07:00N 37°48' W 122°21'0 0.0
2018-Feb-16 06:30N 37°48' W 122°21'0 0.0
2018-Feb-16 06:00N 37°48' W 122°21'0 0.0
2018-Feb-16 05:30N 37°48' W 122°21'0 0.0
2018-Feb-16 05:00N 37°48' W 122°21'3 6.6
2018-Feb-16 04:30N 37°51' W 122°23'3 6.3
2018-Feb-16 04:00N 37°54' W 122°22'0 0.5
2018-Feb-16 03:30N 37°54' W 122°22'0 0.4
2018-Feb-16 03:00N 37°54' W 122°22'1 2.9
2018-Feb-16 02:30N 37°54' W 122°24'3 5.3
2018-Feb-16 02:00N 37°52' W 122°24'3 6.0
2018-Feb-16 01:30N 37°49' W 122°22'0 0.0
2018-Feb-16 01:00N 37°49' W 122°22'0 0.0
2018-Feb-16 00:30N 37°49' W 122°22'4 7.3
2018-Feb-15 23:59N 37°48' W 122°17'1 2.9
2018-Feb-15 23:30N 37°48' W 122°19'1 2.5
2018-Feb-15 23:00N 37°49' W 122°20'2 3.1
2018-Feb-15 22:30N 37°49' W 122°19'0 0.0
2018-Feb-15 22:00N 37°49' W 122°19'0 0.0
2018-Feb-15 21:30N 37°49' W 122°19'0 0.0
2018-Feb-15 21:00N 37°49' W 122°19'0 0.0
2018-Feb-15 20:30N 37°49' W 122°19'0 0.0
2018-Feb-15 20:01N 37°49' W 122°19'0 0.0
2018-Feb-15 19:30N 37°49' W 122°19'0 0.0
2018-Feb-15 19:01N 37°49' W 122°19'0 0.0
2018-Feb-15 18:30N 37°49' W 122°19'0 0.0
2018-Feb-15 18:00N 37°49' W 122°19'0 0.0
2018-Feb-15 17:30N 37°49' W 122°19'0 0.0
2018-Feb-15 17:00N 37°49' W 122°19'0 0.0
2018-Feb-15 16:30N 37°49' W 122°19'0 0.0
2018-Feb-15 16:00N 37°49' W 122°19'0 0.0
2018-Feb-15 15:31N 37°49' W 122°19'0 0.0
2018-Feb-15 15:00N 37°49' W 122°19'0 0.0
2018-Feb-15 14:30N 37°49' W 122°19'0 0.0
2018-Feb-15 14:00N 37°49' W 122°19'0 0.0
2018-Feb-15 13:30N 37°49' W 122°19'0 0.0
2018-Feb-15 13:00N 37°49' W 122°19'0 0.0
2018-Feb-15 12:30N 37°49' W 122°19'0 0.0
2018-Feb-15 12:00N 37°49' W 122°19'0 0.0
2018-Feb-15 11:29N 37°49' W 122°19'0 0.0
2018-Feb-15 11:00N 37°49' W 122°19'0 0.0
2018-Feb-15 10:31N 37°49' W 122°19'0 0.0
2018-Feb-15 10:00N 37°49' W 122°19'0 0.0
2018-Feb-15 09:30N 37°49' W 122°19'0 0.0
2018-Feb-15 09:00N 37°49' W 122°19'0 0.0
2018-Feb-15 08:30N 37°49' W 122°19'0 0.0
2018-Feb-15 08:00N 37°49' W 122°19'0 0.0
2018-Feb-15 07:31N 37°49' W 122°19'0 0.0
2018-Feb-15 07:00N 37°49' W 122°19'0 0.0
2018-Feb-15 06:30N 37°49' W 122°19'0 0.0
2018-Feb-15 06:00N 37°49' W 122°19'0 0.0
2018-Feb-15 05:30N 37°49' W 122°19'0 0.0
2018-Feb-15 05:01N 37°49' W 122°19'0 0.0
2018-Feb-15 04:30N 37°49' W 122°19'0 0.0
2018-Feb-15 04:00N 37°49' W 122°19'0 0.0
2018-Feb-15 03:29N 37°49' W 122°19'1 2.1
2018-Feb-15 03:00N 37°49' W 122°20'1 1.8
2018-Feb-15 02:30N 37°48' W 122°19'0 0.3
2018-Feb-15 02:00N 37°48' W 122°19'0 0.0
2018-Feb-15 01:29N 37°48' W 122°19'0 0.3
2018-Feb-15 01:00N 37°48' W 122°19'0 0.0
2018-Feb-15 00:30N 37°48' W 122°19'1 1.4
2018-Feb-15 00:00N 37°48' W 122°20'0 0.9
2018-Feb-14 23:30N 37°48' W 122°21'2 4.0
2018-Feb-14 23:00N 37°47' W 122°18'2 4.1
2018-Feb-14 22:30N 37°48' W 122°21'1 2.4
2018-Feb-14 22:00N 37°48' W 122°22'3 5.8
2018-Feb-14 21:30N 37°49' W 122°19'0 0.0
2018-Feb-14 21:00N 37°49' W 122°19'0 0.0
2018-Feb-14 20:30N 37°49' W 122°19'0 0.0
2018-Feb-14 20:00N 37°49' W 122°19'0 0.0
2018-Feb-14 19:30N 37°49' W 122°19'0 0.0
2018-Feb-14 19:00N 37°49' W 122°19'0 0.0
2018-Feb-14 18:30N 37°49' W 122°19'0 0.0
2018-Feb-14 18:00N 37°49' W 122°19'0 0.0
2018-Feb-14 17:30N 37°49' W 122°19'0 0.0
2018-Feb-14 17:00N 37°49' W 122°19'0 0.0
2018-Feb-14 16:30N 37°49' W 122°19'0 0.0
2018-Feb-14 16:00N 37°49' W 122°19'0 0.0
2018-Feb-14 15:30N 37°49' W 122°19'0 0.0
2018-Feb-14 15:00N 37°49' W 122°19'0 0.0
2018-Feb-14 14:30N 37°49' W 122°19'3 5.1
2018-Feb-14 14:00N 37°48' W 122°21'3 5.7
2018-Feb-14 13:30N 37°45' W 122°23'0 0.8
2018-Feb-14 13:00N 37°45' W 122°22'2 3.7
2018-Feb-14 12:30N 37°47' W 122°23'0 0.8
2018-Feb-14 12:01N 37°47' W 122°23'0 0.0
2018-Feb-14 11:30N 37°47' W 122°23'0 0.0
2018-Feb-14 11:00N 37°47' W 122°23'1 2.9
2018-Feb-14 10:30N 37°49' W 122°24'5 9.4
2018-Feb-14 10:00N 37°53' W 122°25'3 5.1
2018-Feb-14 09:30N 37°54' W 122°22'0 0.0
2018-Feb-14 09:00N 37°54' W 122°22'1 1.4
2018-Feb-14 08:30N 37°54' W 122°23'2 4.4
2018-Feb-14 08:00N 37°55' W 122°25'1 1.9
2018-Feb-14 07:30N 37°54' W 122°24'1 1.4
2018-Feb-14 07:00N 37°54' W 122°24'0 0.0
2018-Feb-14 06:29N 37°54' W 122°24'0 0.0
2018-Feb-14 06:00N 37°54' W 122°24'0 0.0
2018-Feb-14 05:30N 37°54' W 122°24'0 0.0
2018-Feb-14 05:00N 37°54' W 122°24'0 0.0
2018-Feb-14 04:30N 37°54' W 122°24'0 0.0
2018-Feb-14 04:00N 37°54' W 122°24'0 0.0
2018-Feb-14 03:30N 37°54' W 122°24'0 0.0
2018-Feb-14 03:00N 37°54' W 122°24'0 0.1
2018-Feb-14 02:30N 37°54' W 122°24'3 6.7
2018-Feb-14 02:00N 37°51' W 122°23'4 7.7
2018-Feb-14 01:30N 37°49' W 122°20'0 0.4
2018-Feb-14 01:00N 37°49' W 122°20'0 0.3
2018-Feb-14 00:30N 37°49' W 122°20'1 2.0
2018-Feb-14 00:00N 37°49' W 122°19'0 0.0
2018-Feb-13 23:30N 37°49' W 122°19'0 0.0
2018-Feb-13 23:00N 37°49' W 122°19'0 0.0
2018-Feb-13 22:30N 37°49' W 122°19'0 0.0
2018-Feb-13 22:00N 37°49' W 122°19'0 0.0
2018-Feb-13 21:30N 37°49' W 122°19'0 0.0
2018-Feb-13 21:00N 37°49' W 122°19'0 0.0
2018-Feb-13 20:30N 37°49' W 122°19'0 0.0
2018-Feb-13 20:00N 37°49' W 122°19'0 0.0
2018-Feb-13 19:30N 37°49' W 122°19'0 0.0
2018-Feb-13 19:00N 37°49' W 122°19'0 0.0
2018-Feb-13 18:29N 37°49' W 122°19'0 0.0
2018-Feb-13 18:00N 37°49' W 122°19'0 0.0
2018-Feb-13 17:30N 37°49' W 122°19'0 0.0
2018-Feb-13 17:00N 37°49' W 122°19'0 0.0
2018-Feb-13 16:30N 37°49' W 122°19'0 0.0
2018-Feb-13 16:00N 37°49' W 122°19'0 0.0
2018-Feb-13 15:30N 37°49' W 122°19'0 0.0
2018-Feb-13 15:00N 37°49' W 122°19'0 0.0
2018-Feb-13 14:30N 37°49' W 122°19'0 0.0
2018-Feb-13 14:00N 37°49' W 122°19'0 0.0
2018-Feb-13 13:30N 37°49' W 122°19'0 0.0
2018-Feb-13 13:00N 37°49' W 122°19'0 0.0
2018-Feb-13 12:28N 37°49' W 122°19'0 0.0
2018-Feb-13 12:00N 37°49' W 122°19'0 0.0
2018-Feb-13 11:30N 37°49' W 122°19'0 0.0
2018-Feb-13 11:00N 37°49' W 122°19'0 0.0
2018-Feb-13 10:30N 37°49' W 122°19'0 0.0
2018-Feb-13 10:00N 37°49' W 122°19'0 0.0
2018-Feb-13 09:30N 37°49' W 122°19'0 0.0
2018-Feb-13 09:00N 37°49' W 122°19'0 0.0
2018-Feb-13 08:30N 37°49' W 122°19'0 0.0
2018-Feb-13 08:00N 37°49' W 122°19'0 0.0
2018-Feb-13 07:30N 37°49' W 122°19'0 0.0
2018-Feb-13 07:00N 37°49' W 122°19'0 0.0
2018-Feb-13 06:30N 37°49' W 122°19'0 0.0
2018-Feb-13 06:00N 37°49' W 122°19'0 0.0
2018-Feb-13 05:30N 37°49' W 122°19'0 0.0
2018-Feb-13 05:00N 37°49' W 122°19'0 0.0
2018-Feb-13 04:30N 37°49' W 122°19'0 0.0
2018-Feb-13 04:00N 37°49' W 122°19'0 0.0
2018-Feb-13 03:30N 37°49' W 122°19'0 0.0
2018-Feb-13 03:00N 37°49' W 122°19'0 0.0
2018-Feb-13 02:30N 37°49' W 122°19'0 0.0
2018-Feb-13 02:00N 37°49' W 122°19'0 0.0
2018-Feb-13 01:30N 37°49' W 122°19'0 0.0
2018-Feb-13 01:00N 37°49' W 122°19'0 0.0
2018-Feb-13 00:30N 37°49' W 122°19'0 0.0
2018-Feb-13 00:00N 37°49' W 122°19'0 0.0
2018-Feb-12 23:30N 37°49' W 122°19'0 0.0
2018-Feb-12 23:00N 37°49' W 122°19'0 0.0
2018-Feb-12 22:30N 37°49' W 122°19'0 0.0
2018-Feb-12 22:00N 37°49' W 122°19'0 0.0
2018-Feb-12 21:30N 37°49' W 122°19'0 0.0
2018-Feb-12 20:59N 37°49' W 122°19'0 0.0
2018-Feb-12 20:30N 37°49' W 122°19'0 0.0
2018-Feb-12 20:00N 37°49' W 122°19'0 0.0
2018-Feb-12 19:30N 37°49' W 122°19'0 0.0
2018-Feb-12 19:00N 37°49' W 122°19'0 0.0
2018-Feb-12 18:30N 37°49' W 122°19'0 0.0
2018-Feb-12 17:59N 37°49' W 122°19'0 0.0
2018-Feb-12 17:30N 37°49' W 122°19'0 0.0
2018-Feb-12 17:00N 37°49' W 122°19'0 0.0
2018-Feb-12 16:30N 37°49' W 122°19'0 0.0
2018-Feb-12 16:00N 37°49' W 122°19'0 0.0
2018-Feb-12 15:30N 37°49' W 122°19'0 0.0
2018-Feb-12 15:00N 37°49' W 122°19'1 2.0
2018-Feb-12 14:31N 37°49' W 122°20'1 1.5
2018-Feb-12 14:01N 37°48' W 122°21'0 0.3
2018-Feb-12 13:30N 37°48' W 122°21'0 0.0
2018-Feb-12 13:00N 37°48' W 122°21'4 8.3
2018-Feb-12 12:30N 37°51' W 122°24'510.6
2018-Feb-12 12:00N 37°57' W 122°26'510.4
2018-Feb-12 11:29N 38°01' W 122°23'510.7
2018-Feb-12 11:00N 38°04' W 122°17'7 0.4
2018-Feb-11 17:58N 38°02' W 122°08'1 0.3
2018-Feb-11 14:47N 38°02' W 122°10'1 1.9
2018-Feb-11 14:10N 38°02' W 122°08'1 3.4
2018-Feb-11 14:00N 38°02' W 122°09'2 1.3
2018-Feb-11 12:32N 38°03' W 122°11'0 8.5
2018-Feb-11 12:30N 38°03' W 122°11'4 8.2
2018-Feb-11 12:00N 38°03' W 122°16'5 8.7
2018-Feb-11 11:29N 38°02' W 122°21'5 9.2
2018-Feb-11 10:59N 37°59' W 122°26'4 8.9
2018-Feb-11 10:30N 37°54' W 122°25'5 9.5
2018-Feb-11 10:00N 37°50' W 122°22'3 5.9
2018-Feb-11 09:30N 37°49' W 122°19'0 0.0
2018-Feb-11 09:00N 37°49' W 122°19'0 0.0
2018-Feb-11 08:30N 37°49' W 122°19'0 0.0
2018-Feb-11 08:00N 37°49' W 122°19'0 0.0
2018-Feb-11 07:30N 37°49' W 122°19'0 0.0
2018-Feb-11 07:00N 37°49' W 122°19'0 0.0
2018-Feb-11 06:30N 37°49' W 122°19'0 0.0
2018-Feb-11 06:00N 37°49' W 122°19'0 0.0
2018-Feb-11 05:30N 37°49' W 122°19'0 0.0
2018-Feb-11 05:00N 37°49' W 122°19'0 0.0
2018-Feb-11 04:30N 37°49' W 122°19'0 0.0
2018-Feb-11 04:00N 37°49' W 122°19'0 0.0
2018-Feb-11 03:30N 37°49' W 122°19'  

Dump ship's entire track history